sensor_id;sensor_type;location;lat;lon;timestamp;temperature;humidity
64396;DHT22;50717;53.360;6.290;2023-03-30T00:02:23;10.80;99.90
64396;DHT22;50717;53.360;6.290;2023-03-30T00:04:49;10.80;99.90
64396;DHT22;50717;53.360;6.290;2023-03-30T00:07:15;10.80;99.90
64396;DHT22;50717;53.360;6.290;2023-03-30T00:09:41;11.20;99.90
64396;DHT22;50717;53.360;6.290;2023-03-30T00:12:12;11.00;99.90
64396;DHT22;50717;53.360;6.290;2023-03-30T00:14:38;10.50;99.90
64396;DHT22;50717;53.360;6.290;2023-03-30T00:17:06;10.70;99.90
64396;DHT22;50717;53.360;6.290;2023-03-30T00:19:33;11.20;99.90
64396;DHT22;50717;53.360;6.290;2023-03-30T00:22:06;10.90;99.90
64396;DHT22;50717;53.360;6.290;2023-03-30T00:24:32;10.70;99.90
64396;DHT22;50717;53.360;6.290;2023-03-30T00:26:58;11.40;99.90
64396;DHT22;50717;53.360;6.290;2023-03-30T00:29:24;10.90;99.90
64396;DHT22;50717;53.360;6.290;2023-03-30T00:31:50;11.10;99.90
64396;DHT22;50717;53.360;6.290;2023-03-30T00:34:16;10.80;99.90
64396;DHT22;50717;53.360;6.290;2023-03-30T00:36:41;10.80;99.90
64396;DHT22;50717;53.360;6.290;2023-03-30T00:39:07;11.10;99.90
64396;DHT22;50717;53.360;6.290;2023-03-30T00:41:34;11.20;99.90
64396;DHT22;50717;53.360;6.290;2023-03-30T00:46:46;10.90;99.90
64396;DHT22;50717;53.360;6.290;2023-03-30T00:49:12;11.10;99.90
64396;DHT22;50717;53.360;6.290;2023-03-30T00:51:39;11.00;99.90
64396;DHT22;50717;53.360;6.290;2023-03-30T00:54:15;11.30;99.90
64396;DHT22;50717;53.360;6.290;2023-03-30T00:56:41;11.20;99.90
64396;DHT22;50717;53.360;6.290;2023-03-30T00:59:07;11.10;99.90
64396;DHT22;50717;53.360;6.290;2023-03-30T01:01:33;11.10;99.90
64396;DHT22;50717;53.360;6.290;2023-03-30T01:04:03;11.20;99.90
64396;DHT22;50717;53.360;6.290;2023-03-30T01:06:32;10.80;99.90
64396;DHT22;50717;53.360;6.290;2023-03-30T01:08:59;11.30;99.90
64396;DHT22;50717;53.360;6.290;2023-03-30T01:11:25;11.00;99.90
64396;DHT22;50717;53.360;6.290;2023-03-30T01:14:00;11.10;99.90
64396;DHT22;50717;53.360;6.290;2023-03-30T01:25:14;11.30;99.90
64396;DHT22;50717;53.360;6.290;2023-03-30T01:36:08;11.30;99.90
64396;DHT22;50717;53.360;6.290;2023-03-30T01:50:00;11.40;99.90
64396;DHT22;50717;53.360;6.290;2023-03-30T01:52:39;11.30;99.90
64396;DHT22;50717;53.360;6.290;2023-03-30T01:55:14;11.00;99.90
64396;DHT22;50717;53.360;6.290;2023-03-30T01:57:49;11.50;99.90
64396;DHT22;50717;53.360;6.290;2023-03-30T02:00:19;11.20;99.90
64396;DHT22;50717;53.360;6.290;2023-03-30T02:02:54;11.50;99.90
64396;DHT22;50717;53.360;6.290;2023-03-30T02:05:22;11.70;99.90
64396;DHT22;50717;53.360;6.290;2023-03-30T02:07:52;11.50;99.90
64396;DHT22;50717;53.360;6.290;2023-03-30T02:10:22;11.30;99.90
64396;DHT22;50717;53.360;6.290;2023-03-30T02:12:49;11.40;99.90
64396;DHT22;50717;53.360;6.290;2023-03-30T02:15:17;11.40;99.90
64396;DHT22;50717;53.360;6.290;2023-03-30T02:17:44;11.20;99.90
64396;DHT22;50717;53.360;6.290;2023-03-30T02:20:12;11.20;99.90
64396;DHT22;50717;53.360;6.290;2023-03-30T02:22:41;11.40;99.90
64396;DHT22;50717;53.360;6.290;2023-03-30T02:25:08;11.50;99.90
64396;DHT22;50717;53.360;6.290;2023-03-30T02:27:34;11.50;99.90
64396;DHT22;50717;53.360;6.290;2023-03-30T02:30:01;11.50;99.90
64396;DHT22;50717;53.360;6.290;2023-03-30T02:32:32;11.20;99.90
64396;DHT22;50717;53.360;6.290;2023-03-30T02:38:21;11.50;99.90
64396;DHT22;50717;53.360;6.290;2023-03-30T02:41:08;11.30;99.90
64396;DHT22;50717;53.360;6.290;2023-03-30T02:44:03;11.50;99.90
64396;DHT22;50717;53.360;6.290;2023-03-30T02:52:19;11.80;99.90
64396;DHT22;50717;53.360;6.290;2023-03-30T02:54:56;11.50;99.90
64396;DHT22;50717;53.360;6.290;2023-03-30T02:58:06;11.40;99.90
64396;DHT22;50717;53.360;6.290;2023-03-30T03:00:17;11.50;99.90
64396;DHT22;50717;53.360;6.290;2023-03-30T03:02:50;11.20;99.90
64396;DHT22;50717;53.360;6.290;2023-03-30T03:05:18;11.90;99.90
64396;DHT22;50717;53.360;6.290;2023-03-30T03:07:44;11.80;99.90
64396;DHT22;50717;53.360;6.290;2023-03-30T03:10:10;11.60;99.90
64396;DHT22;50717;53.360;6.290;2023-03-30T03:12:36;11.90;99.90
64396;DHT22;50717;53.360;6.290;2023-03-30T03:15:02;11.70;99.90
64396;DHT22;50717;53.360;6.290;2023-03-30T03:17:30;11.90;99.90
64396;DHT22;50717;53.360;6.290;2023-03-30T03:20:02;11.50;99.90
64396;DHT22;50717;53.360;6.290;2023-03-30T03:22:29;11.60;99.90
64396;DHT22;50717;53.360;6.290;2023-03-30T03:24:55;11.60;99.90
64396;DHT22;50717;53.360;6.290;2023-03-30T03:27:21;11.40;99.90
64396;DHT22;50717;53.360;6.290;2023-03-30T03:29:47;11.60;99.90
64396;DHT22;50717;53.360;6.290;2023-03-30T03:32:14;11.50;99.90
64396;DHT22;50717;53.360;6.290;2023-03-30T03:34:40;11.60;99.90
64396;DHT22;50717;53.360;6.290;2023-03-30T03:37:09;11.30;99.90
64396;DHT22;50717;53.360;6.290;2023-03-30T03:39:35;11.10;99.90
64396;DHT22;50717;53.360;6.290;2023-03-30T03:42:03;11.40;99.90
64396;DHT22;50717;53.360;6.290;2023-03-30T03:44:29;11.30;99.90
64396;DHT22;50717;53.360;6.290;2023-03-30T03:46:54;11.00;99.90
64396;DHT22;50717;53.360;6.290;2023-03-30T03:49:20;10.80;99.90
64396;DHT22;50717;53.360;6.290;2023-03-30T03:51:46;11.00;99.90
64396;DHT22;50717;53.360;6.290;2023-03-30T03:54:12;11.50;99.90
64396;DHT22;50717;53.360;6.290;2023-03-30T03:56:38;11.30;99.90
64396;DHT22;50717;53.360;6.290;2023-03-30T03:59:03;11.50;99.90
64396;DHT22;50717;53.360;6.290;2023-03-30T04:01:30;11.10;99.90
64396;DHT22;50717;53.360;6.290;2023-03-30T04:03:56;11.10;99.90
64396;DHT22;50717;53.360;6.290;2023-03-30T04:06:22;11.30;99.90
64396;DHT22;50717;53.360;6.290;2023-03-30T04:08:48;11.00;99.90
64396;DHT22;50717;53.360;6.290;2023-03-30T04:11:13;11.30;99.90
64396;DHT22;50717;53.360;6.290;2023-03-30T04:13:39;11.40;99.90
64396;DHT22;50717;53.360;6.290;2023-03-30T04:16:06;11.10;99.90
64396;DHT22;50717;53.360;6.290;2023-03-30T04:18:32;11.10;99.90
64396;DHT22;50717;53.360;6.290;2023-03-30T04:21:00;10.80;99.90
64396;DHT22;50717;53.360;6.290;2023-03-30T04:23:34;11.20;99.90
64396;DHT22;50717;53.360;6.290;2023-03-30T04:26:00;11.20;99.90
64396;DHT22;50717;53.360;6.290;2023-03-30T04:28:31;11.10;99.90
64396;DHT22;50717;53.360;6.290;2023-03-30T04:31:02;10.90;99.90
64396;DHT22;50717;53.360;6.290;2023-03-30T04:33:29;11.20;99.90
64396;DHT22;50717;53.360;6.290;2023-03-30T04:35:59;10.90;99.90
64396;DHT22;50717;53.360;6.290;2023-03-30T04:38:25;11.30;99.90
64396;DHT22;50717;53.360;6.290;2023-03-30T04:40:52;11.50;99.90
64396;DHT22;50717;53.360;6.290;2023-03-30T04:43:21;11.50;99.90
64396;DHT22;50717;53.360;6.290;2023-03-30T04:45:50;11.00;99.90
64396;DHT22;50717;53.360;6.290;2023-03-30T04:48:17;11.40;99.90
64396;DHT22;50717;53.360;6.290;2023-03-30T04:50:45;11.30;99.90
64396;DHT22;50717;53.360;6.290;2023-03-30T04:53:12;11.10;99.90
64396;DHT22;50717;53.360;6.290;2023-03-30T04:55:40;11.30;99.90
64396;DHT22;50717;53.360;6.290;2023-03-30T04:58:06;11.40;99.90
64396;DHT22;50717;53.360;6.290;2023-03-30T05:00:32;11.50;99.90
64396;DHT22;50717;53.360;6.290;2023-03-30T05:02:58;11.50;99.90
64396;DHT22;50717;53.360;6.290;2023-03-30T05:05:23;11.50;99.90
64396;DHT22;50717;53.360;6.290;2023-03-30T05:07:49;11.30;99.90
64396;DHT22;50717;53.360;6.290;2023-03-30T05:10:16;11.50;99.90
64396;DHT22;50717;53.360;6.290;2023-03-30T05:12:42;11.30;99.90
64396;DHT22;50717;53.360;6.290;2023-03-30T05:15:08;11.40;99.90
64396;DHT22;50717;53.360;6.290;2023-03-30T05:17:34;11.30;99.90
64396;DHT22;50717;53.360;6.290;2023-03-30T05:20:00;11.50;99.90
64396;DHT22;50717;53.360;6.290;2023-03-30T05:22:33;11.50;99.90
64396;DHT22;50717;53.360;6.290;2023-03-30T05:24:58;11.10;99.90
64396;DHT22;50717;53.360;6.290;2023-03-30T05:27:24;11.50;99.90
64396;DHT22;50717;53.360;6.290;2023-03-30T05:29:50;11.30;99.90
64396;DHT22;50717;53.360;6.290;2023-03-30T05:32:16;11.60;99.90
64396;DHT22;50717;53.360;6.290;2023-03-30T05:34:41;11.60;99.90
64396;DHT22;50717;53.360;6.290;2023-03-30T05:37:07;11.70;99.90
64396;DHT22;50717;53.360;6.290;2023-03-30T05:39:33;11.20;99.90
64396;DHT22;50717;53.360;6.290;2023-03-30T05:41:58;11.50;99.90
64396;DHT22;50717;53.360;6.290;2023-03-30T05:44:24;11.80;99.90
64396;DHT22;50717;53.360;6.290;2023-03-30T05:46:50;11.30;99.90
64396;DHT22;50717;53.360;6.290;2023-03-30T05:49:15;11.40;99.90
64396;DHT22;50717;53.360;6.290;2023-03-30T05:51:41;11.50;99.90
64396;DHT22;50717;53.360;6.290;2023-03-30T05:54:10;10.90;99.90
64396;DHT22;50717;53.360;6.290;2023-03-30T05:56:37;11.20;99.90
64396;DHT22;50717;53.360;6.290;2023-03-30T05:59:03;11.30;99.90
64396;DHT22;50717;53.360;6.290;2023-03-30T06:01:29;11.30;99.90
64396;DHT22;50717;53.360;6.290;2023-03-30T06:03:55;11.20;99.90
64396;DHT22;50717;53.360;6.290;2023-03-30T06:06:21;11.60;99.90
64396;DHT22;50717;53.360;6.290;2023-03-30T06:08:47;11.50;99.90
64396;DHT22;50717;53.360;6.290;2023-03-30T06:11:14;11.40;99.90
64396;DHT22;50717;53.360;6.290;2023-03-30T06:13:40;11.80;99.90
64396;DHT22;50717;53.360;6.290;2023-03-30T06:16:06;11.90;99.90
64396;DHT22;50717;53.360;6.290;2023-03-30T06:18:34;11.50;99.90
64396;DHT22;50717;53.360;6.290;2023-03-30T06:21:00;11.50;99.90
64396;DHT22;50717;53.360;6.290;2023-03-30T06:23:27;11.60;99.90
64396;DHT22;50717;53.360;6.290;2023-03-30T06:25:53;11.40;99.90
64396;DHT22;50717;53.360;6.290;2023-03-30T06:28:21;11.80;99.90
64396;DHT22;50717;53.360;6.290;2023-03-30T06:30:47;11.70;99.90
64396;DHT22;50717;53.360;6.290;2023-03-30T06:33:17;11.80;99.90
64396;DHT22;50717;53.360;6.290;2023-03-30T06:35:44;11.80;99.90
64396;DHT22;50717;53.360;6.290;2023-03-30T06:38:10;11.80;99.90
64396;DHT22;50717;53.360;6.290;2023-03-30T06:40:37;11.70;99.90
64396;DHT22;50717;53.360;6.290;2023-03-30T06:43:03;12.00;99.90
64396;DHT22;50717;53.360;6.290;2023-03-30T06:45:28;11.80;99.90
64396;DHT22;50717;53.360;6.290;2023-03-30T06:47:54;11.90;99.90
64396;DHT22;50717;53.360;6.290;2023-03-30T06:50:20;11.60;99.90
64396;DHT22;50717;53.360;6.290;2023-03-30T06:52:46;11.60;99.90
64396;DHT22;50717;53.360;6.290;2023-03-30T06:55:13;12.00;99.90
64396;DHT22;50717;53.360;6.290;2023-03-30T06:57:38;12.00;99.90
64396;DHT22;50717;53.360;6.290;2023-03-30T07:00:05;11.70;99.90
64396;DHT22;50717;53.360;6.290;2023-03-30T07:02:38;12.50;99.90
64396;DHT22;50717;53.360;6.290;2023-03-30T07:05:04;12.00;99.90
64396;DHT22;50717;53.360;6.290;2023-03-30T07:07:31;12.10;99.90
64396;DHT22;50717;53.360;6.290;2023-03-30T07:09:57;12.20;99.90
64396;DHT22;50717;53.360;6.290;2023-03-30T07:12:22;12.20;99.90
64396;DHT22;50717;53.360;6.290;2023-03-30T07:14:48;12.00;99.90
64396;DHT22;50717;53.360;6.290;2023-03-30T07:17:14;11.90;99.90
64396;DHT22;50717;53.360;6.290;2023-03-30T07:19:40;11.80;99.90
64396;DHT22;50717;53.360;6.290;2023-03-30T07:22:05;12.20;99.90
64396;DHT22;50717;53.360;6.290;2023-03-30T07:24:31;12.20;99.90
64396;DHT22;50717;53.360;6.290;2023-03-30T07:26:58;12.10;99.90
64396;DHT22;50717;53.360;6.290;2023-03-30T07:29:24;12.30;99.90
64396;DHT22;50717;53.360;6.290;2023-03-30T07:31:51;11.70;99.90
64396;DHT22;50717;53.360;6.290;2023-03-30T07:34:17;12.10;99.90
64396;DHT22;50717;53.360;6.290;2023-03-30T07:36:43;11.70;99.90
64396;DHT22;50717;53.360;6.290;2023-03-30T07:39:08;11.80;99.90
64396;DHT22;50717;53.360;6.290;2023-03-30T07:41:35;11.80;99.90
64396;DHT22;50717;53.360;6.290;2023-03-30T07:44:01;11.70;99.90
64396;DHT22;50717;53.360;6.290;2023-03-30T07:46:27;12.00;99.90
64396;DHT22;50717;53.360;6.290;2023-03-30T07:48:52;11.80;99.90
64396;DHT22;50717;53.360;6.290;2023-03-30T07:51:19;12.10;99.90
64396;DHT22;50717;53.360;6.290;2023-03-30T07:53:47;11.80;99.90
64396;DHT22;50717;53.360;6.290;2023-03-30T07:56:12;12.10;99.90
64396;DHT22;50717;53.360;6.290;2023-03-30T07:58:38;11.60;99.90
64396;DHT22;50717;53.360;6.290;2023-03-30T08:01:04;11.40;99.90
64396;DHT22;50717;53.360;6.290;2023-03-30T08:03:30;11.90;99.90
64396;DHT22;50717;53.360;6.290;2023-03-30T08:06:02;11.50;99.90
64396;DHT22;50717;53.360;6.290;2023-03-30T08:08:32;11.60;99.90
64396;DHT22;50717;53.360;6.290;2023-03-30T08:10:58;11.60;99.90
64396;DHT22;50717;53.360;6.290;2023-03-30T08:13:24;11.30;99.90
64396;DHT22;50717;53.360;6.290;2023-03-30T08:15:50;11.40;99.90
64396;DHT22;50717;53.360;6.290;2023-03-30T08:18:19;11.40;99.90
64396;DHT22;50717;53.360;6.290;2023-03-30T08:20:49;11.70;99.90
64396;DHT22;50717;53.360;6.290;2023-03-30T08:23:19;11.90;99.90
64396;DHT22;50717;53.360;6.290;2023-03-30T08:25:45;11.20;99.90
64396;DHT22;50717;53.360;6.290;2023-03-30T08:28:15;11.70;99.90
64396;DHT22;50717;53.360;6.290;2023-03-30T08:30:41;11.30;99.90
64396;DHT22;50717;53.360;6.290;2023-03-30T08:33:07;10.80;99.90
64396;DHT22;50717;53.360;6.290;2023-03-30T08:35:33;11.30;99.90
64396;DHT22;50717;53.360;6.290;2023-03-30T08:37:59;11.40;99.90
64396;DHT22;50717;53.360;6.290;2023-03-30T08:40:24;11.00;99.90
64396;DHT22;50717;53.360;6.290;2023-03-30T08:45:45;11.40;99.90
64396;DHT22;50717;53.360;6.290;2023-03-30T08:48:20;11.20;99.90
64396;DHT22;50717;53.360;6.290;2023-03-30T08:53:32;11.60;99.90
64396;DHT22;50717;53.360;6.290;2023-03-30T08:56:20;11.70;99.90
64396;DHT22;50717;53.360;6.290;2023-03-30T09:07:00;11.60;99.90
64396;DHT22;50717;53.360;6.290;2023-03-30T09:09:30;11.70;99.90
64396;DHT22;50717;53.360;6.290;2023-03-30T09:15:07;11.90;99.90
64396;DHT22;50717;53.360;6.290;2023-03-30T09:17:45;12.10;99.90
64396;DHT22;50717;53.360;6.290;2023-03-30T09:20:24;12.40;99.90
64396;DHT22;50717;53.360;6.290;2023-03-30T09:22:52;12.60;99.90
64396;DHT22;50717;53.360;6.290;2023-03-30T09:28:26;12.60;99.90
64396;DHT22;50717;53.360;6.290;2023-03-30T09:31:13;12.60;99.90
64396;DHT22;50717;53.360;6.290;2023-03-30T09:34:05;12.50;99.90
64396;DHT22;50717;53.360;6.290;2023-03-30T09:36:56;12.60;99.90
64396;DHT22;50717;53.360;6.290;2023-03-30T09:39:27;12.40;99.90
64396;DHT22;50717;53.360;6.290;2023-03-30T09:42:42;12.50;99.90
64396;DHT22;50717;53.360;6.290;2023-03-30T09:45:25;12.30;99.90
64396;DHT22;50717;53.360;6.290;2023-03-30T09:47:52;12.80;99.90
64396;DHT22;50717;53.360;6.290;2023-03-30T09:50:27;12.90;99.90
64396;DHT22;50717;53.360;6.290;2023-03-30T09:55:59;12.70;99.90
64396;DHT22;50717;53.360;6.290;2023-03-30T09:58:31;12.30;99.90
64396;DHT22;50717;53.360;6.290;2023-03-30T10:01:15;12.70;99.90
64396;DHT22;50717;53.360;6.290;2023-03-30T10:03:43;12.60;99.90
64396;DHT22;50717;53.360;6.290;2023-03-30T10:06:20;12.40;99.90
64396;DHT22;50717;53.360;6.290;2023-03-30T10:08:51;12.30;99.90
64396;DHT22;50717;53.360;6.290;2023-03-30T10:11:41;12.30;99.90
64396;DHT22;50717;53.360;6.290;2023-03-30T10:14:33;12.20;99.90
64396;DHT22;50717;53.360;6.290;2023-03-30T10:17:00;12.20;99.90
64396;DHT22;50717;53.360;6.290;2023-03-30T10:19:27;12.10;99.90
64396;DHT22;50717;53.360;6.290;2023-03-30T10:21:55;12.00;99.90
64396;DHT22;50717;53.360;6.290;2023-03-30T10:24:26;12.40;99.90
64396;DHT22;50717;53.360;6.290;2023-03-30T10:26:56;12.50;99.90
64396;DHT22;50717;53.360;6.290;2023-03-30T10:29:25;12.50;99.90
64396;DHT22;50717;53.360;6.290;2023-03-30T10:32:00;12.50;99.90
64396;DHT22;50717;53.360;6.290;2023-03-30T10:34:39;12.70;99.90
64396;DHT22;50717;53.360;6.290;2023-03-30T10:37:33;12.40;99.90
64396;DHT22;50717;53.360;6.290;2023-03-30T10:40:02;12.40;99.90
64396;DHT22;50717;53.360;6.290;2023-03-30T10:42:35;12.40;99.90
64396;DHT22;50717;53.360;6.290;2023-03-30T10:45:04;12.60;99.90
64396;DHT22;50717;53.360;6.290;2023-03-30T10:47:39;12.60;99.90
64396;DHT22;50717;53.360;6.290;2023-03-30T10:50:28;12.30;99.90
64396;DHT22;50717;53.360;6.290;2023-03-30T10:53:22;12.50;99.90
64396;DHT22;50717;53.360;6.290;2023-03-30T11:04:38;12.60;99.90
64396;DHT22;50717;53.360;6.290;2023-03-30T11:07:54;12.50;99.90
64396;DHT22;50717;53.360;6.290;2023-03-30T11:10:30;12.70;99.90
64396;DHT22;50717;53.360;6.290;2023-03-30T11:13:18;12.60;99.90
64396;DHT22;50717;53.360;6.290;2023-03-30T11:18:52;13.10;99.90
64396;DHT22;50717;53.360;6.290;2023-03-30T11:21:40;13.00;99.90
64396;DHT22;50717;53.360;6.290;2023-03-30T11:24:15;12.60;99.90
64396;DHT22;50717;53.360;6.290;2023-03-30T11:26:58;12.90;99.90
64396;DHT22;50717;53.360;6.290;2023-03-30T11:29:48;13.30;99.90
64396;DHT22;50717;53.360;6.290;2023-03-30T11:32:45;13.30;99.90
64396;DHT22;50717;53.360;6.290;2023-03-30T11:35:33;13.10;99.90
64396;DHT22;50717;53.360;6.290;2023-03-30T11:38:32;13.20;99.90
64396;DHT22;50717;53.360;6.290;2023-03-30T11:41:15;13.10;99.90
64396;DHT22;50717;53.360;6.290;2023-03-30T11:43:41;13.10;99.90
64396;DHT22;50717;53.360;6.290;2023-03-30T11:46:31;13.40;99.90
64396;DHT22;50717;53.360;6.290;2023-03-30T11:49:18;13.10;99.90
64396;DHT22;50717;53.360;6.290;2023-03-30T11:55:03;13.10;99.90
64396;DHT22;50717;53.360;6.290;2023-03-30T11:57:46;13.80;99.90
64396;DHT22;50717;53.360;6.290;2023-03-30T12:00:26;13.80;99.90
64396;DHT22;50717;53.360;6.290;2023-03-30T12:05:35;13.70;99.90
64396;DHT22;50717;53.360;6.290;2023-03-30T12:11:26;13.60;99.90
64396;DHT22;50717;53.360;6.290;2023-03-30T12:13:44;13.40;99.90
64396;DHT22;50717;53.360;6.290;2023-03-30T12:16:19;13.30;99.90
64396;DHT22;50717;53.360;6.290;2023-03-30T12:18:56;13.40;99.90
64396;DHT22;50717;53.360;6.290;2023-03-30T12:21:40;13.60;99.90
64396;DHT22;50717;53.360;6.290;2023-03-30T12:24:19;13.60;99.90
64396;DHT22;50717;53.360;6.290;2023-03-30T12:26:48;13.40;99.90
64396;DHT22;50717;53.360;6.290;2023-03-30T12:29:15;13.60;99.90
64396;DHT22;50717;53.360;6.290;2023-03-30T12:34:36;13.50;99.90
64396;DHT22;50717;53.360;6.290;2023-03-30T12:37:34;13.60;99.90
64396;DHT22;50717;53.360;6.290;2023-03-30T12:42:38;13.80;99.90
64396;DHT22;50717;53.360;6.290;2023-03-30T12:50:28;13.60;99.90
64396;DHT22;50717;53.360;6.290;2023-03-30T12:56:02;13.80;99.90
64396;DHT22;50717;53.360;6.290;2023-03-30T13:01:26;14.10;99.90
64396;DHT22;50717;53.360;6.290;2023-03-30T13:04:04;14.10;99.90
64396;DHT22;50717;53.360;6.290;2023-03-30T13:06:37;14.20;99.90
64396;DHT22;50717;53.360;6.290;2023-03-30T13:35:14;14.20;99.90
64396;DHT22;50717;53.360;6.290;2023-03-30T13:48:05;14.70;99.90
64396;DHT22;50717;53.360;6.290;2023-03-30T13:50:35;14.80;99.90
64396;DHT22;50717;53.360;6.290;2023-03-30T13:53:13;14.80;99.90
64396;DHT22;50717;53.360;6.290;2023-03-30T13:55:43;14.80;99.90
64396;DHT22;50717;53.360;6.290;2023-03-30T13:58:15;14.70;99.90
64396;DHT22;50717;53.360;6.290;2023-03-30T14:00:45;15.00;99.90
64396;DHT22;50717;53.360;6.290;2023-03-30T14:03:32;15.10;99.90
64396;DHT22;50717;53.360;6.290;2023-03-30T14:06:19;14.90;99.90
64396;DHT22;50717;53.360;6.290;2023-03-30T14:08:49;15.10;99.90
64396;DHT22;50717;53.360;6.290;2023-03-30T14:11:24;15.00;99.90
64396;DHT22;50717;53.360;6.290;2023-03-30T14:13:52;15.10;99.90
64396;DHT22;50717;53.360;6.290;2023-03-30T14:16:19;15.10;99.90
64396;DHT22;50717;53.360;6.290;2023-03-30T14:18:46;15.00;99.90
64396;DHT22;50717;53.360;6.290;2023-03-30T14:21:18;15.40;99.90
64396;DHT22;50717;53.360;6.290;2023-03-30T14:23:53;15.30;99.90
64396;DHT22;50717;53.360;6.290;2023-03-30T14:26:24;15.40;99.90
64396;DHT22;50717;53.360;6.290;2023-03-30T14:29:08;14.80;99.90
64396;DHT22;50717;53.360;6.290;2023-03-30T14:31:40;15.40;99.90
64396;DHT22;50717;53.360;6.290;2023-03-30T14:34:27;15.40;99.90
64396;DHT22;50717;53.360;6.290;2023-03-30T14:37:04;15.10;99.90
64396;DHT22;50717;53.360;6.290;2023-03-30T14:39:32;15.30;99.90
64396;DHT22;50717;53.360;6.290;2023-03-30T14:42:15;14.70;99.90
64396;DHT22;50717;53.360;6.290;2023-03-30T14:44:42;14.90;99.90
64396;DHT22;50717;53.360;6.290;2023-03-30T14:47:08;14.40;99.90
64396;DHT22;50717;53.360;6.290;2023-03-30T14:49:35;14.70;99.90
64396;DHT22;50717;53.360;6.290;2023-03-30T14:52:09;14.70;99.90
64396;DHT22;50717;53.360;6.290;2023-03-30T14:54:38;14.80;99.90
64396;DHT22;50717;53.360;6.290;2023-03-30T14:57:06;14.50;99.90
64396;DHT22;50717;53.360;6.290;2023-03-30T14:59:37;14.10;99.90
64396;DHT22;50717;53.360;6.290;2023-03-30T15:02:23;16.10;99.90
64396;DHT22;50717;53.360;6.290;2023-03-30T15:04:50;14.10;99.90
64396;DHT22;50717;53.360;6.290;2023-03-30T15:07:17;13.50;99.90
64396;DHT22;50717;53.360;6.290;2023-03-30T15:09:45;13.70;99.90
64396;DHT22;50717;53.360;6.290;2023-03-30T15:12:27;13.60;99.90
64396;DHT22;50717;53.360;6.290;2023-03-30T15:14:56;14.10;99.90
64396;DHT22;50717;53.360;6.290;2023-03-30T15:17:25;13.80;99.90
64396;DHT22;50717;53.360;6.290;2023-03-30T15:19:53;13.80;99.90
64396;DHT22;50717;53.360;6.290;2023-03-30T15:22:25;13.70;99.90
64396;DHT22;50717;53.360;6.290;2023-03-30T15:24:55;13.70;99.90
64396;DHT22;50717;53.360;6.290;2023-03-30T15:27:22;13.50;99.90
64396;DHT22;50717;53.360;6.290;2023-03-30T15:29:48;13.40;99.90
64396;DHT22;50717;53.360;6.290;2023-03-30T15:32:17;13.10;99.90
64396;DHT22;50717;53.360;6.290;2023-03-30T15:37:33;12.90;99.90
64396;DHT22;50717;53.360;6.290;2023-03-30T15:40:00;13.10;99.90
64396;DHT22;50717;53.360;6.290;2023-03-30T15:42:31;13.10;99.90
64396;DHT22;50717;53.360;6.290;2023-03-30T15:45:15;12.80;99.90
64396;DHT22;50717;53.360;6.290;2023-03-30T15:47:41;13.30;99.90
64396;DHT22;50717;53.360;6.290;2023-03-30T15:50:12;12.90;99.90
64396;DHT22;50717;53.360;6.290;2023-03-30T15:52:42;13.40;99.90
64396;DHT22;50717;53.360;6.290;2023-03-30T15:55:20;12.90;99.90
64396;DHT22;50717;53.360;6.290;2023-03-30T15:57:50;12.90;99.90
64396;DHT22;50717;53.360;6.290;2023-03-30T16:00:22;13.20;99.90
64396;DHT22;50717;53.360;6.290;2023-03-30T16:02:51;13.40;99.90
64396;DHT22;50717;53.360;6.290;2023-03-30T16:05:30;12.80;99.90
64396;DHT22;50717;53.360;6.290;2023-03-30T16:07:58;13.00;99.90
64396;DHT22;50717;53.360;6.290;2023-03-30T16:10:29;13.00;99.90
64396;DHT22;50717;53.360;6.290;2023-03-30T16:12:57;13.20;99.90
64396;DHT22;50717;53.360;6.290;2023-03-30T16:15:25;12.70;99.90
64396;DHT22;50717;53.360;6.290;2023-03-30T16:17:52;12.90;99.90
64396;DHT22;50717;53.360;6.290;2023-03-30T16:20:23;12.80;99.90
64396;DHT22;50717;53.360;6.290;2023-03-30T16:22:49;13.00;99.90
64396;DHT22;50717;53.360;6.290;2023-03-30T16:25:17;12.70;99.90
64396;DHT22;50717;53.360;6.290;2023-03-30T16:27:43;12.90;99.90
64396;DHT22;50717;53.360;6.290;2023-03-30T16:30:23;12.70;99.90
64396;DHT22;50717;53.360;6.290;2023-03-30T16:32:52;12.70;99.90
64396;DHT22;50717;53.360;6.290;2023-03-30T16:35:17;12.50;99.90
64396;DHT22;50717;53.360;6.290;2023-03-30T16:37:43;12.70;99.90
64396;DHT22;50717;53.360;6.290;2023-03-30T16:40:30;12.50;99.90
64396;DHT22;50717;53.360;6.290;2023-03-30T16:42:58;12.30;99.90
64396;DHT22;50717;53.360;6.290;2023-03-30T16:45:23;12.10;99.90
64396;DHT22;50717;53.360;6.290;2023-03-30T16:47:49;12.20;99.90
64396;DHT22;50717;53.360;6.290;2023-03-30T16:50:35;12.40;99.90
64396;DHT22;50717;53.360;6.290;2023-03-30T16:53:02;12.20;99.90
64396;DHT22;50717;53.360;6.290;2023-03-30T16:55:28;12.30;99.90
64396;DHT22;50717;53.360;6.290;2023-03-30T16:57:53;12.10;99.90
64396;DHT22;50717;53.360;6.290;2023-03-30T17:00:29;12.00;99.90
64396;DHT22;50717;53.360;6.290;2023-03-30T17:02:55;12.20;99.90
64396;DHT22;50717;53.360;6.290;2023-03-30T17:05:21;12.10;99.90
64396;DHT22;50717;53.360;6.290;2023-03-30T17:07:47;12.00;99.90
64396;DHT22;50717;53.360;6.290;2023-03-30T17:12:41;11.90;99.90
64396;DHT22;50717;53.360;6.290;2023-03-30T17:15:08;12.00;99.90
64396;DHT22;50717;53.360;6.290;2023-03-30T17:17:34;11.80;99.90
64396;DHT22;50717;53.360;6.290;2023-03-30T17:22:49;12.20;99.90
64396;DHT22;50717;53.360;6.290;2023-03-30T17:25:16;10.40;99.90
64396;DHT22;50717;53.360;6.290;2023-03-30T17:27:46;12.20;99.90
64396;DHT22;50717;53.360;6.290;2023-03-30T17:30:33;11.80;99.90
64396;DHT22;50717;53.360;6.290;2023-03-30T17:33:00;12.10;99.90
64396;DHT22;50717;53.360;6.290;2023-03-30T17:35:25;12.20;99.90
64396;DHT22;50717;53.360;6.290;2023-03-30T17:37:52;11.90;99.90
64396;DHT22;50717;53.360;6.290;2023-03-30T17:40:27;12.30;99.90
64396;DHT22;50717;53.360;6.290;2023-03-30T17:42:54;12.10;99.90
64396;DHT22;50717;53.360;6.290;2023-03-30T17:45:23;12.10;99.90
64396;DHT22;50717;53.360;6.290;2023-03-30T17:47:49;12.30;99.90
64396;DHT22;50717;53.360;6.290;2023-03-30T17:50:30;12.30;99.90
64396;DHT22;50717;53.360;6.290;2023-03-30T17:52:57;12.00;99.90
64396;DHT22;50717;53.360;6.290;2023-03-30T17:55:25;12.20;99.90
64396;DHT22;50717;53.360;6.290;2023-03-30T17:57:51;11.90;99.90
64396;DHT22;50717;53.360;6.290;2023-03-30T18:00:31;11.90;99.90
64396;DHT22;50717;53.360;6.290;2023-03-30T18:02:58;12.30;99.90
64396;DHT22;50717;53.360;6.290;2023-03-30T18:05:30;11.80;99.90
64396;DHT22;50717;53.360;6.290;2023-03-30T18:07:56;12.00;99.90
64396;DHT22;50717;53.360;6.290;2023-03-30T18:12:49;11.60;99.90
64396;DHT22;50717;53.360;6.290;2023-03-30T18:15:16;12.10;99.90
64396;DHT22;50717;53.360;6.290;2023-03-30T18:17:42;11.80;99.90
64396;DHT22;50717;53.360;6.290;2023-03-30T18:20:38;12.00;99.90